Lyncourt, New York
Current Conditions -  °F | °C
As of 12:32 AM on Thursday 18 Dec 2014 (Local Time) from KSYR Reporting Station
Light Snow Light Snow  
Wind Chill: 19°   Ceiling: 1400
Heat Index: 31°   Visibility: 2mi
Dew Point: 30°   Wind: 17mph
Humidity: 96%   Direction: 250°WSW
Pressure: 29.91"   Gusts: NA
Location:  43.0791°N, 76.146°W
Report Text: KSYR 180532Z 25015KT 2SM -SN BR FEW009 BKN014 OVC022 M01/M01 A2991 RMK AO2 VIS 1 1/4 NW P0000 T10061011 $
Loading
Personal Weather Stations






























Interactive Weather Map New forecast layout! Learn more

10-Day Weather Forecast

Advertisements
Track Severe Weather on mobile